createdAt,value
2019-01-19T00:01:49.619Z,57.45
2019-01-19T00:04:52.343Z,48.78
2019-01-19T00:08:07.275Z,54.38
2019-01-19T00:11:00.752Z,51.23
2019-01-19T00:14:01.557Z,48.65
2019-01-19T00:17:19.173Z,51.25
2019-01-19T00:20:35.207Z,41.55
2019-01-19T00:23:30.919Z,47.48
2019-01-19T00:26:26.427Z,45.90
2019-01-19T00:29:04.759Z,48.50
2019-01-19T00:31:48.885Z,40.78
2019-01-19T00:34:40.003Z,39.00
2019-01-19T00:37:21.947Z,45.20
2019-01-19T00:40:21.431Z,55.23
2019-01-19T00:42:55.581Z,50.08
2019-01-19T00:45:57.095Z,60.58
2019-01-19T00:48:51.694Z,44.93
2019-01-19T00:51:29.122Z,47.00
2019-01-19T00:54:07.027Z,42.25
2019-01-19T00:56:48.877Z,53.48
2019-01-19T00:59:27.372Z,53.15
2019-01-19T01:02:26.027Z,47.48
2019-01-19T01:05:02.015Z,44.88
2019-01-19T01:07:56.211Z,39.73
2019-01-19T01:11:10.990Z,41.30
2019-01-19T01:14:02.093Z,44.95
2019-01-19T01:16:53.283Z,41.42
2019-01-19T01:19:58.774Z,33.90
2019-01-19T01:23:09.380Z,31.93
2019-01-19T01:26:24.926Z,41.68
2019-01-19T01:29:40.834Z,38.28
2019-01-19T01:32:59.683Z,34.95
2019-01-19T01:36:04.183Z,29.00
2019-01-19T01:38:45.775Z,34.27
2019-01-19T01:41:42.182Z,33.02
2019-01-19T01:44:28.799Z,31.75
2019-01-19T01:47:53.645Z,39.27
2019-01-19T01:50:27.795Z,31.65
2019-01-19T01:53:22.877Z,37.13
2019-01-19T01:56:01.051Z,50.00
2019-01-19T01:58:51.044Z,33.23
2019-01-19T02:02:03.330Z,35.70
2019-01-19T02:05:01.267Z,55.33
2019-01-19T02:08:04.780Z,51.25
2019-01-19T02:11:03.924Z,34.95
2019-01-19T02:13:58.256Z,33.73
2019-01-19T02:17:04.515Z,34.90
2019-01-19T02:19:50.871Z,33.15
2019-01-19T02:22:58.633Z,37.33
2019-01-19T02:25:59.967Z,33.02
2019-01-19T02:28:58.203Z,27.35
2019-01-19T02:32:09.860Z,25.95
2019-01-19T02:35:07.266Z,27.70
2019-01-19T02:38:10.892Z,23.50
2019-01-19T02:41:11.146Z,29.20
2019-01-19T02:44:06.572Z,29.40
2019-01-19T02:47:17.822Z,41.08
2019-01-19T02:49:59.580Z,33.55
2019-01-19T02:52:59.595Z,26.05
2019-01-19T02:56:04.831Z,31.17
2019-01-19T02:59:27.489Z,18.32
2019-01-19T03:02:22.784Z,35.92
2019-01-19T03:05:22.810Z,22.35
2019-01-19T03:07:58.245Z,22.85
2019-01-19T03:11:04.622Z,20.40
2019-01-19T03:14:28.660Z,23.27
2019-01-19T03:17:20.408Z,21.37
2019-01-19T03:20:32.118Z,26.57
2019-01-19T03:23:15.291Z,26.02
2019-01-19T03:26:04.754Z,18.40
2019-01-19T03:28:58.457Z,17.70
2019-01-19T03:31:57.391Z,21.70
2019-01-19T03:34:49.627Z,17.80
2019-01-19T03:37:26.829Z,18.15
2019-01-19T03:40:40.126Z,20.50
2019-01-19T03:43:38.012Z,16.35
2019-01-19T03:46:48.492Z,23.42
2019-01-19T03:49:25.876Z,19.75
2019-01-19T03:52:20.436Z,28.90
2019-01-19T03:55:14.470Z,22.65
2019-01-19T03:58:06.618Z,24.47
2019-01-19T04:00:45.330Z,22.42
2019-01-19T04:03:41.686Z,28.23
2019-01-19T04:06:40.096Z,23.62
2019-01-19T04:09:44.493Z,21.70
2019-01-19T04:12:59.219Z,23.60
2019-01-19T04:15:43.951Z,17.10
2019-01-19T04:19:02.428Z,22.70
2019-01-19T04:21:42.955Z,24.10
2019-01-19T04:24:18.769Z,25.17
2019-01-19T04:26:50.001Z,23.15
2019-01-19T04:29:18.595Z,25.05
2019-01-19T04:31:47.213Z,22.58
2019-01-19T04:34:15.981Z,25.43
2019-01-19T04:36:44.756Z,25.65
2019-01-19T04:39:13.430Z,20.70
2019-01-19T04:41:42.030Z,19.90
2019-01-19T04:44:10.634Z,24.87
2019-01-19T04:46:39.230Z,22.35
2019-01-19T04:49:08.131Z,18.55
2019-01-19T04:51:36.745Z,19.32
2019-01-19T04:54:05.488Z,24.47
2019-01-19T04:56:34.116Z,18.65
2019-01-19T04:59:02.731Z,25.90
2019-01-19T05:01:31.368Z,18.48
2019-01-19T05:03:59.980Z,21.17
2019-01-19T05:06:30.513Z,20.40
2019-01-19T05:08:58.930Z,22.65
2019-01-19T05:11:27.567Z,21.33
2019-01-19T05:13:56.159Z,20.70
2019-01-19T05:16:24.781Z,19.25
2019-01-19T05:18:53.379Z,18.45
2019-01-19T05:21:22.397Z,18.80
2019-01-19T05:23:51.168Z,14.98
2019-01-19T05:26:19.824Z,23.32
2019-01-19T05:28:48.424Z,20.00
2019-01-19T05:31:17.049Z,17.85
2019-01-19T05:33:45.696Z,18.27
2019-01-19T05:36:14.321Z,20.55
2019-01-19T05:38:43.179Z,12.63
2019-01-19T05:41:11.876Z,18.32
2019-01-19T05:43:40.730Z,18.02
2019-01-19T05:46:09.434Z,18.60
2019-01-19T05:48:38.039Z,22.67
2019-01-19T05:51:06.649Z,19.05
2019-01-19T05:53:35.259Z,18.87
2019-01-19T05:56:03.974Z,13.50
2019-01-19T05:58:32.555Z,21.95
2019-01-19T06:01:01.274Z,16.27
2019-01-19T06:03:29.884Z,19.32
2019-01-19T06:05:58.533Z,19.80
2019-01-19T06:08:27.155Z,17.07
2019-01-19T06:10:55.788Z,22.75
2019-01-19T06:13:24.415Z,19.32
2019-01-19T06:15:53.152Z,22.02
2019-01-19T06:18:21.776Z,18.35
2019-01-19T06:20:50.379Z,19.90
2019-01-19T06:23:19.241Z,20.82
2019-01-19T06:25:47.865Z,18.65
2019-01-19T06:28:16.512Z,20.37
2019-01-19T06:30:45.143Z,20.20
2019-01-19T06:33:13.756Z,21.60
2019-01-19T06:35:42.403Z,21.48
2019-01-19T06:38:11.032Z,18.25
2019-01-19T06:40:39.632Z,18.73
2019-01-19T06:43:08.306Z,24.60
2019-01-19T06:45:36.926Z,18.85
2019-01-19T06:48:05.547Z,17.42
2019-01-19T06:50:34.203Z,25.62
2019-01-19T06:53:02.824Z,18.52
2019-01-19T06:55:35.974Z,20.23
2019-01-19T06:58:04.680Z,23.20
2019-01-19T07:00:33.450Z,15.40
2019-01-19T07:03:02.048Z,19.27
2019-01-19T07:05:30.668Z,25.20
2019-01-19T07:07:59.522Z,26.42
2019-01-19T07:10:28.170Z,22.77
2019-01-19T07:12:56.767Z,21.52
2019-01-19T07:15:25.370Z,24.10
2019-01-19T07:17:53.996Z,19.67
2019-01-19T07:20:27.770Z,19.25
2019-01-19T07:22:56.538Z,20.65
2019-01-19T07:25:25.155Z,18.62
2019-01-19T07:27:53.763Z,23.83
2019-01-19T07:30:22.451Z,21.75
2019-01-19T07:32:51.094Z,31.40
2019-01-19T07:35:19.768Z,19.32
2019-01-19T07:37:48.398Z,23.95
2019-01-19T07:40:17.648Z,20.10
2019-01-19T07:42:47.212Z,19.57
2019-01-19T07:45:16.291Z,32.53
2019-01-19T07:47:45.675Z,17.98
2019-01-19T07:50:16.117Z,20.92
2019-01-19T07:52:44.845Z,20.80
2019-01-19T07:55:14.584Z,17.57
2019-01-19T07:57:43.308Z,28.55
2019-01-19T08:00:21.799Z,20.52
2019-01-19T08:02:50.775Z,21.48
2019-01-19T08:05:19.427Z,23.95
2019-01-19T08:07:48.045Z,22.20
2019-01-19T08:10:17.283Z,20.32
2019-01-19T08:12:45.987Z,23.25
2019-01-19T08:15:16.719Z,20.05
2019-01-19T08:17:45.426Z,20.43
2019-01-19T08:20:14.191Z,24.72
2019-01-19T08:22:42.908Z,24.72
2019-01-19T08:25:11.773Z,21.87
2019-01-19T08:27:40.411Z,25.12
2019-01-19T08:30:13.112Z,25.95
2019-01-19T08:32:41.737Z,20.60
2019-01-19T08:35:10.535Z,19.52
2019-01-19T08:37:39.151Z,20.25
2019-01-19T08:40:10.041Z,16.95
2019-01-19T08:42:38.931Z,16.25
2019-01-19T08:45:08.764Z,22.55
2019-01-19T08:47:37.403Z,18.23
2019-01-19T08:50:06.664Z,20.65
2019-01-19T08:52:35.284Z,20.37
2019-01-19T08:55:04.671Z,16.95
2019-01-19T08:57:33.383Z,18.62
2019-01-19T09:00:02.057Z,17.10
2019-01-19T09:02:30.727Z,26.35
2019-01-19T09:04:59.339Z,19.45
2019-01-19T09:07:33.617Z,22.02
2019-01-19T09:09:58.309Z,23.45
2019-01-19T09:12:26.927Z,19.73
2019-01-19T09:14:55.564Z,17.82
2019-01-19T09:17:24.167Z,25.62
2019-01-19T09:19:52.777Z,21.27
2019-01-19T09:22:21.614Z,17.40
2019-01-19T09:24:50.314Z,21.25
2019-01-19T09:27:19.153Z,21.42
2019-01-19T09:29:47.784Z,18.40
2019-01-19T09:32:16.467Z,17.60
2019-01-19T09:34:45.142Z,19.05
2019-01-19T09:37:13.751Z,19.02
2019-01-19T09:39:42.406Z,22.55
2019-01-19T09:42:11.289Z,20.20
2019-01-19T09:44:40.067Z,18.02
2019-01-19T09:47:08.707Z,15.88
2019-01-19T09:49:37.327Z,15.53
2019-01-19T09:52:06.099Z,16.85
2019-01-19T09:54:34.710Z,16.37
2019-01-19T09:57:03.395Z,15.30
2019-01-19T09:59:32.059Z,18.05
2019-01-19T10:02:00.725Z,18.30
2019-01-19T10:04:29.383Z,15.10
2019-01-19T10:06:58.007Z,11.33
2019-01-19T10:09:26.652Z,16.60
2019-01-19T10:11:55.332Z,13.98
2019-01-19T10:14:23.987Z,19.82
2019-01-19T10:16:52.699Z,14.07
2019-01-19T10:19:21.439Z,15.35
2019-01-19T10:21:50.077Z,14.68
2019-01-19T10:24:18.680Z,17.20
2019-01-19T10:26:47.282Z,13.60
2019-01-19T10:29:16.035Z,21.95
2019-01-19T10:31:44.672Z,18.40
2019-01-19T10:34:13.334Z,15.20
2019-01-19T10:36:41.934Z,22.00
2019-01-19T10:39:10.563Z,19.10
2019-01-19T10:41:41.039Z,16.40
2019-01-19T10:44:09.919Z,15.55
2019-01-19T10:46:38.552Z,15.43
2019-01-19T10:49:07.275Z,16.27
2019-01-19T10:51:35.957Z,14.70
2019-01-19T10:54:04.884Z,15.50
2019-01-19T10:56:33.515Z,16.10
2019-01-19T10:59:02.479Z,14.80
2019-01-19T11:01:31.164Z,18.48
2019-01-19T11:03:59.783Z,18.57
2019-01-19T11:06:28.451Z,15.20
2019-01-19T11:08:57.054Z,15.35
2019-01-19T11:11:25.764Z,13.43
2019-01-19T11:13:54.359Z,16.80
2019-01-19T11:16:23.009Z,17.37
2019-01-19T11:18:51.736Z,9.77
2019-01-19T11:21:20.388Z,15.03
2019-01-19T11:23:49.013Z,10.93
2019-01-19T11:26:17.623Z,17.50
2019-01-19T11:28:46.247Z,11.50
2019-01-19T11:31:14.893Z,10.93
2019-01-19T11:33:43.479Z,12.77
2019-01-19T11:36:12.248Z,24.37
2019-01-19T11:38:40.856Z,16.23
2019-01-19T11:41:09.500Z,16.77
2019-01-19T11:43:38.095Z,15.53
2019-01-19T11:46:06.943Z,9.87
2019-01-19T11:48:35.686Z,12.93
2019-01-19T11:51:04.417Z,9.73
2019-01-19T11:53:33.022Z,11.37
2019-01-19T11:56:01.623Z,19.57
2019-01-19T11:58:30.351Z,9.07
2019-01-19T12:00:59.002Z,18.83
2019-01-19T12:03:27.865Z,10.67
2019-01-19T12:05:56.576Z,13.50
2019-01-19T12:08:25.239Z,15.83
2019-01-19T12:10:53.835Z,9.70
2019-01-19T12:13:22.435Z,9.63
2019-01-19T12:15:51.108Z,18.43
2019-01-19T12:18:19.703Z,10.50
2019-01-19T12:20:50.220Z,18.60
2019-01-19T12:23:18.964Z,12.40
2019-01-19T12:25:47.635Z,12.50
2019-01-19T12:28:16.250Z,16.83
2019-01-19T12:30:44.940Z,15.47
2019-01-19T12:33:13.643Z,12.10
2019-01-19T12:35:42.255Z,14.07
2019-01-19T12:38:10.865Z,32.37
2019-01-19T12:40:39.507Z,14.10
2019-01-19T12:43:11.084Z,9.67
2019-01-19T12:45:42.319Z,10.20
2019-01-19T12:48:11.938Z,18.37
2019-01-19T12:50:40.841Z,12.93
2019-01-19T12:53:09.608Z,9.30
2019-01-19T12:55:38.313Z,18.87
2019-01-19T12:58:08.222Z,14.30
2019-01-19T13:00:36.951Z,13.07
2019-01-19T13:03:06.403Z,18.37
2019-01-19T13:05:50.154Z,12.57
2019-01-19T13:08:20.546Z,17.90
2019-01-19T13:10:53.630Z,23.73
2019-01-19T13:13:26.442Z,15.80
2019-01-19T13:16:17.987Z,9.23
2019-01-19T13:19:29.270Z,11.87
2019-01-19T13:22:37.213Z,15.57
2019-01-19T13:25:36.450Z,12.13
2019-01-19T13:28:46.327Z,9.20
2019-01-19T13:31:44.168Z,13.33
2019-01-19T13:34:51.795Z,13.20
2019-01-19T13:37:48.434Z,15.47
2019-01-19T13:40:46.154Z,12.67
2019-01-19T13:43:31.932Z,12.90
2019-01-19T13:46:14.455Z,22.83
2019-01-19T13:49:17.155Z,13.10
2019-01-19T13:52:09.079Z,19.57
2019-01-19T13:55:18.096Z,12.07
2019-01-19T13:57:55.233Z,17.90
2019-01-19T14:01:08.019Z,11.60
2019-01-19T14:03:54.731Z,16.70
2019-01-19T14:07:02.370Z,12.30
2019-01-19T14:09:39.433Z,16.80
2019-01-19T14:12:46.047Z,16.00
2019-01-19T14:15:54.375Z,28.73
2019-01-19T14:18:51.859Z,21.77
2019-01-19T14:21:46.219Z,12.23
2019-01-19T14:24:31.328Z,14.03
2019-01-19T14:27:35.982Z,11.08
2019-01-19T14:30:31.703Z,23.22
2019-01-19T14:33:36.107Z,15.32
2019-01-19T14:36:28.777Z,16.17
2019-01-19T14:39:10.839Z,16.07
2019-01-19T14:41:54.972Z,24.67
2019-01-19T14:44:52.723Z,19.40
2019-01-19T14:47:33.588Z,13.75
2019-01-19T14:51:01.332Z,29.30
2019-01-19T14:53:55.654Z,16.40
2019-01-19T14:56:34.882Z,15.75
2019-01-19T14:59:31.025Z,18.90
2019-01-19T15:02:36.533Z,13.65
2019-01-19T15:05:38.610Z,26.87
2019-01-19T15:08:47.134Z,31.07
2019-01-19T15:11:59.118Z,21.07
2019-01-19T15:14:54.894Z,26.45
2019-01-19T15:18:10.874Z,27.85
2019-01-19T15:20:59.119Z,34.90
2019-01-19T15:23:53.278Z,37.42
2019-01-19T15:27:05.003Z,29.70
2019-01-19T15:29:58.248Z,29.50
2019-01-19T15:32:50.924Z,32.17
2019-01-19T15:35:44.607Z,25.55
2019-01-19T15:38:35.085Z,27.13
2019-01-19T15:41:53.565Z,34.38
2019-01-19T15:45:03.937Z,27.50
2019-01-19T15:48:15.596Z,25.20
2019-01-19T15:51:09.783Z,42.88
2019-01-19T15:54:00.452Z,46.15
2019-01-19T15:56:57.563Z,39.00
2019-01-19T15:59:37.755Z,44.60
2019-01-19T16:02:41.984Z,32.78
2019-01-19T16:06:00.967Z,33.58
2019-01-19T16:09:06.555Z,34.95
2019-01-19T16:11:59.237Z,45.70
2019-01-19T16:15:09.447Z,33.78
2019-01-19T16:18:01.839Z,26.87
2019-01-19T16:20:40.914Z,29.07
2019-01-19T16:23:49.881Z,29.20
2019-01-19T16:26:41.380Z,27.45
2019-01-19T16:29:26.727Z,33.20
2019-01-19T16:32:39.660Z,29.10
2019-01-19T16:35:55.501Z,27.00
2019-01-19T16:38:54.218Z,32.25
2019-01-19T16:41:48.764Z,52.43
2019-01-19T16:44:50.964Z,26.87
2019-01-19T16:47:40.775Z,23.50
2019-01-19T16:50:56.949Z,32.03
2019-01-19T16:53:53.592Z,27.35
2019-01-19T16:56:56.579Z,22.95
2019-01-19T16:59:46.845Z,27.77
2019-01-19T17:02:38.465Z,30.15
2019-01-19T17:05:36.206Z,26.37
2019-01-19T17:08:32.707Z,28.42
2019-01-19T17:11:42.799Z,23.98
2019-01-19T17:15:03.860Z,31.20
2019-01-19T17:18:12.393Z,33.15
2019-01-19T17:21:20.759Z,31.40
2019-01-19T17:24:15.352Z,29.72
2019-01-19T17:27:27.213Z,27.50
2019-01-19T17:30:17.383Z,24.37
2019-01-19T17:32:57.765Z,24.87
2019-01-19T17:35:39.197Z,36.85
2019-01-19T17:38:18.060Z,37.35
2019-01-19T17:41:09.987Z,26.12
2019-01-19T17:44:19.091Z,28.50
2019-01-19T17:47:06.960Z,36.10
2019-01-19T17:50:18.185Z,26.77
2019-01-19T17:53:07.626Z,33.65
2019-01-19T17:55:44.662Z,35.25
2019-01-19T17:58:32.639Z,29.02
2019-01-19T18:01:28.923Z,35.55
2019-01-19T18:04:25.277Z,30.05
2019-01-19T18:07:33.825Z,35.40
2019-01-19T18:10:30.533Z,28.10
2019-01-19T18:13:35.119Z,37.90
2019-01-19T18:16:30.211Z,34.35
2019-01-19T18:19:41.939Z,32.28
2019-01-19T18:22:22.014Z,36.63
2019-01-19T18:25:08.236Z,32.25
2019-01-19T18:27:53.529Z,33.25
2019-01-19T18:31:04.817Z,32.65
2019-01-19T18:34:08.886Z,36.40
2019-01-19T18:37:08.644Z,41.13
2019-01-19T18:40:06.787Z,39.18
2019-01-19T18:42:57.279Z,43.95
2019-01-19T18:46:22.564Z,48.00
2019-01-19T18:49:25.227Z,43.28
2019-01-19T18:52:13.609Z,42.10
2019-01-19T18:55:10.302Z,44.45
2019-01-19T18:58:18.669Z,44.45
2019-01-19T19:01:32.231Z,53.98
2019-01-19T19:04:45.415Z,53.38
2019-01-19T19:07:45.180Z,54.05
2019-01-19T19:10:53.373Z,42.35
2019-01-19T19:13:46.675Z,42.53
2019-01-19T19:16:46.890Z,48.38
2019-01-19T19:19:55.475Z,52.98
2019-01-19T19:22:49.000Z,51.33
2019-01-19T19:25:53.391Z,46.05
2019-01-19T19:28:59.068Z,48.30
2019-01-19T19:31:54.213Z,47.83
2019-01-19T19:35:05.931Z,53.90
2019-01-19T19:38:13.753Z,54.53
2019-01-19T19:41:08.479Z,48.65
2019-01-19T19:44:08.063Z,50.50
2019-01-19T19:47:05.407Z,48.68
2019-01-19T19:49:59.000Z,49.65
2019-01-19T19:52:28.114Z,51.92
2019-01-19T19:54:55.484Z,45.15
2019-01-19T19:57:24.148Z,48.52
2019-01-19T19:59:52.873Z,52.65
2019-01-19T20:02:21.725Z,56.37
2019-01-19T20:04:50.433Z,52.45
2019-01-19T20:07:19.959Z,45.75
2019-01-19T20:09:48.951Z,44.30
2019-01-19T20:12:17.844Z,55.73
2019-01-19T20:14:46.539Z,55.78
2019-01-19T20:17:15.528Z,58.08
2019-01-19T20:19:44.367Z,59.90
2019-01-19T20:22:13.040Z,65.25
2019-01-19T20:24:41.881Z,52.25
2019-01-19T20:27:10.632Z,55.23
2019-01-19T20:29:39.328Z,66.92
2019-01-19T20:32:08.006Z,52.45
2019-01-19T20:34:37.045Z,47.17
2019-01-19T20:37:05.734Z,55.08
2019-01-19T20:39:34.585Z,60.10
2019-01-19T20:42:03.380Z,57.67
2019-01-19T20:44:31.996Z,58.28
2019-01-19T20:47:00.636Z,56.92
2019-01-19T20:49:29.285Z,51.53
2019-01-19T20:51:58.144Z,51.13
2019-01-19T20:54:26.944Z,51.08
2019-01-19T20:56:55.619Z,63.52
2019-01-19T20:59:24.308Z,55.28
2019-01-19T21:01:54.115Z,57.15
2019-01-19T21:04:22.963Z,55.52
2019-01-19T21:06:52.020Z,51.90
2019-01-19T21:09:20.695Z,52.27
2019-01-19T21:11:49.356Z,53.30
2019-01-19T21:14:18.098Z,56.77
2019-01-19T21:16:47.737Z,52.75
2019-01-19T21:19:16.511Z,54.03
2019-01-19T21:21:45.139Z,47.30
2019-01-19T21:24:13.816Z,48.20
2019-01-19T21:26:42.459Z,60.45
2019-01-19T21:29:11.315Z,52.27
2019-01-19T21:31:40.076Z,56.50
2019-01-19T21:34:09.061Z,53.92
2019-01-19T21:36:37.673Z,62.17
2019-01-19T21:39:08.032Z,51.10
2019-01-19T21:41:36.735Z,58.02
2019-01-19T21:44:05.682Z,52.85
2019-01-19T21:46:34.295Z,48.35
2019-01-19T21:49:02.942Z,52.93
2019-01-19T21:51:31.553Z,56.92
2019-01-19T21:54:00.283Z,61.73
2019-01-19T21:56:28.908Z,52.70
2019-01-19T21:58:57.547Z,47.25
2019-01-19T22:01:26.163Z,48.55
2019-01-19T22:03:54.811Z,51.18
2019-01-19T22:06:23.428Z,59.10
2019-01-19T22:08:52.079Z,52.20
2019-01-19T22:11:20.904Z,56.23
2019-01-19T22:13:49.567Z,55.40
2019-01-19T22:16:18.191Z,55.98
2019-01-19T22:18:46.842Z,49.53
2019-01-19T22:21:15.548Z,60.30
2019-01-19T22:23:44.175Z,58.20
2019-01-19T22:26:14.449Z,61.58
2019-01-19T22:28:43.087Z,54.10
2019-01-19T22:31:11.782Z,55.35
2019-01-19T22:33:40.490Z,59.80
2019-01-19T22:36:09.164Z,62.33
2019-01-19T22:38:37.855Z,56.60
2019-01-19T22:41:06.535Z,58.00
2019-01-19T22:43:35.419Z,59.90
2019-01-19T22:46:04.237Z,65.62
2019-01-19T22:48:32.989Z,58.35
2019-01-19T22:51:01.689Z,56.73
2019-01-19T22:53:30.504Z,53.10
2019-01-19T22:55:59.163Z,66.57
2019-01-19T22:58:27.969Z,59.23
2019-01-19T23:01:07.595Z,61.95
2019-01-19T23:03:37.629Z,65.60
2019-01-19T23:06:06.517Z,62.60
2019-01-19T23:08:35.359Z,54.58
2019-01-19T23:11:04.215Z,52.38
2019-01-19T23:13:32.867Z,60.45
2019-01-19T23:16:01.897Z,59.25
2019-01-19T23:18:30.635Z,59.90
2019-01-19T23:20:59.309Z,63.68
2019-01-19T23:23:28.139Z,71.67
2019-01-19T23:25:58.675Z,61.23
2019-01-19T23:28:27.386Z,56.95
2019-01-19T23:30:56.251Z,80.97
2019-01-19T23:33:25.127Z,62.27
2019-01-19T23:35:53.787Z,76.62
2019-01-19T23:38:22.454Z,62.75
2019-01-19T23:40:51.403Z,74.05
2019-01-19T23:43:20.240Z,69.40
2019-01-19T23:45:48.885Z,67.85
2019-01-19T23:48:17.540Z,63.68
2019-01-19T23:50:46.178Z,59.90
2019-01-19T23:53:14.811Z,57.98
2019-01-19T23:55:43.787Z,61.50
2019-01-19T23:58:12.475Z,57.25
